Time;durP1;ratioP1;P1;durP2;ratioP2;P2;SDS_P1;SDS_P2;PMS_P1;PMS_P2;Temp;Humidity;BMP_temperature;BMP_pressure;BME280_temperature;BME280_humidity;BME280_pressure;Samples;Min_cycle;Max_cycle;Signal;HPM_P1;HPM_P2
2023/01/15 00:00:11;;;;;;;309.20;133.45;;;;;;;;;;1036006;28;20050;-74
2023/01/15 00:00:42;;;;;;;279.75;136.25;;;;;;;;;;1036064;28;20041;-74
2023/01/15 00:01:28;;;;;;;287.42;129.13;;;;;;;;;;1033183;28;20033;-74
2023/01/15 00:01:59;;;;;;;283.90;127.53;;;;;;;;;;1031600;28;20139;-73
2023/01/15 00:02:30;;;;;;;262.67;125.68;;;;;;;;;;1034098;28;20170;-73
2023/01/15 00:03:01;;;;;;;269.90;130.07;;;;;;;;;;1035048;28;20022;-73
2023/01/15 00:03:31;;;;;;;270.02;124.35;;;;;;;;;;1031476;28;20026;-73
2023/01/15 00:04:03;;;;;;;281.13;127.57;;;;;;;;;;1033790;28;20088;-73
2023/01/15 00:04:34;;;;;;;260.92;124.32;;;;;;;;;;1033376;28;20386;-73
2023/01/15 00:05:04;;;;;;;276.15;127.28;;;;;;;;;;1035512;28;20026;-74
2023/01/15 00:05:35;;;;;;;279.40;127.32;;;;;;;;;;1031514;28;20041;-74
2023/01/15 00:06:06;;;;;;;257.30;127.20;;;;;;;;;;1031558;28;20162;-74
2023/01/15 00:06:38;;;;;;;255.85;121.18;;;;;;;;;;1027797;28;20050;-74
2023/01/15 00:07:08;;;;;;;285.10;125.80;;;;;;;;;;1027691;28;20023;-74
2023/01/15 00:07:39;;;;;;;266.15;129.95;;;;;;;;;;1031527;28;20022;-74
2023/01/15 00:08:09;;;;;;;264.98;130.40;;;;;;;;;;1031799;28;20121;-73
2023/01/15 00:08:40;;;;;;;264.30;127.50;;;;;;;;;;1035664;28;20032;-73
2023/01/15 00:09:12;;;;;;;261.00;126.82;;;;;;;;;;1031757;28;20116;-73
2023/01/15 00:09:43;;;;;;;250.20;122.22;;;;;;;;;;1031924;28;20035;-73
2023/01/15 00:10:13;;;;;;;252.38;119.43;;;;;;;;;;1031986;28;20030;-74
2023/01/15 00:10:44;;;;;;;256.45;124.30;;;;;;;;;;1032084;28;20081;-74
2023/01/15 00:11:14;;;;;;;255.35;120.20;;;;;;;;;;1032089;28;20027;-74
2023/01/15 00:11:45;;;;;;;248.65;121.75;;;;;;;;;;1032089;28;20117;-74
2023/01/15 00:12:15;;;;;;;279.77;125.35;;;;;;;;;;1032467;28;20133;-74
2023/01/15 00:12:46;;;;;;;263.98;127.85;;;;;;;;;;1035488;28;20036;-74
2023/01/15 00:13:17;;;;;;;251.00;124.47;;;;;;;;;;1036034;28;20612;-73
2023/01/15 00:13:47;;;;;;;252.77;117.18;;;;;;;;;;1036509;28;20034;-73
2023/01/15 00:14:18;;;;;;;258.65;121.60;;;;;;;;;;1036286;28;20420;-73
2023/01/15 00:14:48;;;;;;;245.40;121.30;;;;;;;;;;1036391;28;20116;-73
2023/01/15 00:15:19;;;;;;;259.83;119.75;;;;;;;;;;1036359;28;20026;-73
2023/01/15 00:15:49;;;;;;;253.30;116.40;;;;;;;;;;1036580;28;20113;-73
2023/01/15 00:16:21;;;;;;;260.33;120.30;;;;;;;;;;1036432;28;20102;-74
2023/01/15 00:16:52;;;;;;;248.65;114.28;;;;;;;;;;1036856;28;20505;-73
2023/01/15 00:17:22;;;;;;;275.52;123.63;;;;;;;;;;1036501;28;20036;-74
2023/01/15 00:17:53;;;;;;;250.85;113.70;;;;;;;;;;1036420;28;20486;-74
2023/01/15 00:18:23;;;;;;;246.10;112.65;;;;;;;;;;1032256;28;20472;-74
2023/01/15 00:18:58;;;;;;;214.73;109.30;;;;;;;;;;1032548;28;20113;-73
2023/01/15 00:19:29;;;;;;;253.27;113.03;;;;;;;;;;1032830;28;20113;-73
2023/01/15 00:19:59;;;;;;;265.17;123.15;;;;;;;;;;1036475;28;20026;-73
2023/01/15 00:20:30;;;;;;;228.38;108.13;;;;;;;;;;1036148;28;20478;-73
2023/01/15 00:21:05;;;;;;;233.40;111.97;;;;;;;;;;1036522;28;20030;-73
2023/01/15 00:21:35;;;;;;;225.43;103.57;;;;;;;;;;1036409;28;20076;-73
2023/01/15 00:22:06;;;;;;;238.32;111.22;;;;;;;;;;1032929;28;20393;-73
2023/01/15 00:22:36;;;;;;;225.75;106.28;;;;;;;;;;1036571;28;20061;-74
2023/01/15 00:27:37;;;;;;;259.25;117.43;;;;;;;;;;1036330;28;20113;-73
2023/01/15 00:28:04;;;;;;;197.95;93.57;;;;;;;;;;1033443;28;20030;-74
2023/01/15 00:28:34;;;;;;;201.20;95.97;;;;;;;;;;1032723;28;20398;-74
2023/01/15 00:29:05;;;;;;;192.88;92.95;;;;;;;;;;1032571;28;20117;-74
2023/01/15 00:29:36;;;;;;;209.10;96.80;;;;;;;;;;1032620;28;20128;-74
2023/01/15 00:30:08;;;;;;;207.70;94.28;;;;;;;;;;1032649;28;20038;-74
2023/01/15 00:30:40;;;;;;;217.25;100.47;;;;;;;;;;1032778;28;20124;-74
2023/01/15 00:31:12;;;;;;;223.50;102.70;;;;;;;;;;1031998;28;20462;-74
2023/01/15 00:31:49;;;;;;;190.57;96.22;;;;;;;;;;1032360;28;20151;-74
2023/01/15 00:32:19;;;;;;;219.10;99.20;;;;;;;;;;1032244;28;20371;-74
2023/01/15 00:32:50;;;;;;;189.48;95.10;;;;;;;;;;1029452;28;20031;-74
2023/01/15 00:33:21;;;;;;;194.93;96.30;;;;;;;;;;1032175;28;20068;-73
2023/01/15 00:33:51;;;;;;;206.88;93.35;;;;;;;;;;1032453;28;20030;-73
2023/01/15 00:34:22;;;;;;;179.00;91.80;;;;;;;;;;1032260;28;20026;-73
2023/01/15 00:34:52;;;;;;;207.35;98.40;;;;;;;;;;1032550;28;20463;-73
2023/01/15 00:35:23;;;;;;;217.77;96.03;;;;;;;;;;1032461;28;20022;-73
2023/01/15 00:35:56;;;;;;;200.32;90.38;;;;;;;;;;1032706;28;20398;-73
2023/01/15 00:36:26;;;;;;;185.77;93.80;;;;;;;;;;1032563;28;20520;-73
2023/01/15 00:36:57;;;;;;;200.95;92.78;;;;;;;;;;1032267;28;20096;-73
2023/01/15 00:37:27;;;;;;;189.65;92.28;;;;;;;;;;1032213;28;20141;-73
2023/01/15 00:37:59;;;;;;;205.98;94.45;;;;;;;;;;1032420;28;20026;-73
2023/01/15 00:38:29;;;;;;;167.02;89.05;;;;;;;;;;1028381;28;20062;-74
2023/01/15 00:39:00;;;;;;;190.55;88.57;;;;;;;;;;1032383;28;20084;-73
2023/01/15 00:39:30;;;;;;;184.65;96.40;;;;;;;;;;1032091;28;20529;-74
2023/01/15 00:40:01;;;;;;;198.20;97.63;;;;;;;;;;1032454;28;20022;-74
2023/01/15 00:40:31;;;;;;;213.30;94.85;;;;;;;;;;1032555;28;20038;-74
2023/01/15 00:41:02;;;;;;;193.23;96.35;;;;;;;;;;1032701;28;20057;-74
2023/01/15 00:41:33;;;;;;;196.32;99.30;;;;;;;;;;1032167;28;20055;-74
2023/01/15 00:42:03;;;;;;;193.32;93.40;;;;;;;;;;1032355;28;20466;-74
2023/01/15 00:42:34;;;;;;;196.85;93.65;;;;;;;;;;1028190;28;20039;-74
2023/01/15 00:43:04;;;;;;;199.27;96.60;;;;;;;;;;1028404;28;20026;-73
2023/01/15 00:43:34;;;;;;;185.05;94.95;;;;;;;;;;1032346;28;20133;-74
2023/01/15 00:44:05;;;;;;;207.18;99.18;;;;;;;;;;1032252;28;20069;-74
2023/01/15 00:44:36;;;;;;;208.48;95.50;;;;;;;;;;1032161;28;20058;-74
2023/01/15 00:45:10;;;;;;;215.45;100.68;;;;;;;;;;1032168;28;20041;-73
2023/01/15 00:45:40;;;;;;;201.02;99.13;;;;;;;;;;1032342;28;20545;-73
2023/01/15 00:46:11;;;;;;;188.70;92.88;;;;;;;;;;1034436;28;20034;-73
2023/01/15 00:46:42;;;;;;;199.10;95.40;;;;;;;;;;1036657;28;20026;-73
2023/01/15 00:47:14;;;;;;;208.00;97.18;;;;;;;;;;1036523;28;20037;-73
2023/01/15 00:47:46;;;;;;;201.95;96.57;;;;;;;;;;1036656;28;20041;-73
2023/01/15 00:48:17;;;;;;;199.68;93.30;;;;;;;;;;1036153;28;20120;-73
2023/01/15 00:48:48;;;;;;;208.93;97.60;;;;;;;;;;1032241;28;20042;-73
2023/01/15 00:49:19;;;;;;;204.80;98.00;;;;;;;;;;1032166;28;20023;-73
2023/01/15 00:49:50;;;;;;;211.77;98.05;;;;;;;;;;1032503;28;20038;-73
2023/01/15 00:50:20;;;;;;;215.48;102.00;;;;;;;;;;1036267;28;20038;-73
2023/01/15 00:50:51;;;;;;;210.82;99.28;;;;;;;;;;1036723;28;20466;-73
2023/01/15 00:51:22;;;;;;;200.18;92.78;;;;;;;;;;1036498;28;20116;-73
2023/01/15 00:51:52;;;;;;;222.55;98.20;;;;;;;;;;1036730;28;20033;-73
2023/01/15 00:52:23;;;;;;;209.18;100.57;;;;;;;;;;1036183;28;20083;-73
2023/01/15 00:52:53;;;;;;;209.98;99.50;;;;;;;;;;1036393;28;20116;-74
2023/01/15 00:53:24;;;;;;;216.20;97.07;;;;;;;;;;1036217;28;20215;-74
2023/01/15 00:53:54;;;;;;;219.40;95.30;;;;;;;;;;1036400;28;20624;-74
2023/01/15 00:54:25;;;;;;;233.63;105.95;;;;;;;;;;1035700;28;20040;-74
2023/01/15 00:54:55;;;;;;;214.57;100.57;;;;;;;;;;1036381;28;20088;-74
2023/01/15 00:55:26;;;;;;;227.45;108.30;;;;;;;;;;1031990;28;20029;-74
2023/01/15 00:55:56;;;;;;;243.68;110.25;;;;;;;;;;1032407;28;20027;-74
2023/01/15 00:56:27;;;;;;;228.80;102.97;;;;;;;;;;1032155;28;20073;-74
2023/01/15 00:56:58;;;;;;;210.88;103.00;;;;;;;;;;1032409;28;20026;-74
2023/01/15 00:57:29;;;;;;;244.75;112.07;;;;;;;;;;1035474;28;20521;-74
2023/01/15 00:57:59;;;;;;;251.50;113.97;;;;;;;;;;1032320;28;20035;-74
2023/01/15 00:58:30;;;;;;;239.98;112.18;;;;;;;;;;1032040;28;20018;-74
2023/01/15 00:59:01;;;;;;;267.55;120.30;;;;;;;;;;1032347;28;20037;-74
2023/01/15 00:59:31;;;;;;;267.40;124.60;;;;;;;;;;1035562;28;20113;-73
2023/01/15 01:00:03;;;;;;;258.05;116.65;;;;;;;;;;1036394;28;20026;-73
2023/01/15 01:00:33;;;;;;;252.90;116.72;;;;;;;;;;1036434;28;20089;-73
2023/01/15 01:01:04;;;;;;;252.27;121.40;;;;;;;;;;1036603;28;20509;-73
2023/01/15 01:01:34;;;;;;;284.52;127.68;;;;;;;;;;1036570;28;20470;-73
2023/01/15 01:02:05;;;;;;;271.33;119.72;;;;;;;;;;1036609;28;20422;-73
2023/01/15 01:02:35;;;;;;;274.92;124.32;;;;;;;;;;1036556;28;20088;-73
2023/01/15 01:03:06;;;;;;;282.17;125.72;;;;;;;;;;1036041;28;20018;-73
2023/01/15 01:03:36;;;;;;;280.70;129.07;;;;;;;;;;1036276;28;20076;-74
2023/01/15 01:04:07;;;;;;;276.58;130.30;;;;;;;;;;1032079;28;20513;-74
2023/01/15 01:04:37;;;;;;;266.52;123.53;;;;;;;;;;1032321;28;20076;-74
2023/01/15 01:05:08;;;;;;;290.38;132.88;;;;;;;;;;1036130;28;20029;-73
2023/01/15 01:05:38;;;;;;;296.20;130.20;;;;;;;;;;1036371;28;20022;-73
2023/01/15 01:06:09;;;;;;;277.45;127.38;;;;;;;;;;1036079;28;20080;-74
2023/01/15 01:06:40;;;;;;;286.27;127.38;;;;;;;;;;1036366;28;20026;-74
2023/01/15 01:07:10;;;;;;;294.88;129.63;;;;;;;;;;1036169;28;20029;-74
2023/01/15 01:07:41;;;;;;;281.95;127.68;;;;;;;;;;1036292;28;20025;-74
2023/01/15 01:08:12;;;;;;;268.90;127.47;;;;;;;;;;1036532;28;20026;-73
2023/01/15 01:08:46;;;;;;;272.05;124.28;;;;;;;;;;1036576;28;20037;-73
2023/01/15 01:09:16;;;;;;;290.27;125.60;;;;;;;;;;1036388;28;20030;-73
2023/01/15 01:09:47;;;;;;;283.35;126.07;;;;;;;;;;1036616;28;20470;-73
2023/01/15 01:10:18;;;;;;;278.63;126.10;;;;;;;;;;1036018;28;20116;-74
2023/01/15 01:10:48;;;;;;;298.52;128.98;;;;;;;;;;1036339;28;20029;-74
2023/01/15 01:11:22;;;;;;;272.05;128.25;;;;;;;;;;1036092;28;20089;-73
2023/01/15 01:11:53;;;;;;;276.90;129.15;;;;;;;;;;1036362;28;20022;-73
2023/01/15 01:12:25;;;;;;;297.95;132.32;;;;;;;;;;1036447;28;20069;-73
2023/01/15 01:12:55;;;;;;;299.92;131.18;;;;;;;;;;1036216;28;20136;-73
2023/01/15 01:13:26;;;;;;;301.30;135.63;;;;;;;;;;1036132;28;20056;-74
2023/01/15 01:13:56;;;;;;;318.73;136.40;;;;;;;;;;1036358;28;20030;-74
2023/01/15 01:14:27;;;;;;;323.23;127.35;;;;;;;;;;1036191;28;20022;-74
2023/01/15 01:14:57;;;;;;;286.80;129.35;;;;;;;;;;1036485;28;20541;-74
2023/01/15 01:15:28;;;;;;;295.65;130.40;;;;;;;;;;1036449;28;20033;-74
2023/01/15 01:15:58;;;;;;;285.48;128.18;;;;;;;;;;1036770;28;20037;-74
2023/01/15 01:16:30;;;;;;;276.23;122.32;;;;;;;;;;1036486;28;20113;-74
2023/01/15 01:17:01;;;;;;;288.67;129.98;;;;;;;;;;1036594;28;20030;-74
2023/01/15 01:17:32;;;;;;;275.55;129.00;;;;;;;;;;1036372;28;20033;-74
2023/01/15 01:18:04;;;;;;;305.30;136.70;;;;;;;;;;1036555;28;20033;-74
2023/01/15 01:18:34;;;;;;;285.50;124.60;;;;;;;;;;1036627;28;20033;-74
2023/01/15 01:19:16;;;;;;;288.60;132.82;;;;;;;;;;1036446;28;20034;-74
2023/01/15 01:19:46;;;;;;;269.23;126.93;;;;;;;;;;1036617;28;20061;-74
2023/01/15 01:20:17;;;;;;;274.42;123.80;;;;;;;;;;1036280;28;20059;-73
2023/01/15 01:20:48;;;;;;;264.35;131.65;;;;;;;;;;1036691;28;20441;-73
2023/01/15 01:21:19;;;;;;;272.85;123.57;;;;;;;;;;1036336;28;20026;-74
2023/01/15 01:21:50;;;;;;;282.58;121.05;;;;;;;;;;1036196;28;20088;-74
2023/01/15 01:22:20;;;;;;;264.33;124.40;;;;;;;;;;1036158;28;20398;-74
2023/01/15 01:22:51;;;;;;;274.65;126.05;;;;;;;;;;1032193;28;20033;-74
2023/01/15 01:23:23;;;;;;;264.05;129.85;;;;;;;;;;1032314;28;20027;-74
2023/01/15 01:23:53;;;;;;;272.75;125.75;;;;;;;;;;1035883;28;20033;-74
2023/01/15 01:24:24;;;;;;;289.65;126.80;;;;;;;;;;1036147;28;20095;-74
2023/01/15 01:24:55;;;;;;;287.52;122.25;;;;;;;;;;1036474;28;20030;-74
2023/01/15 01:25:25;;;;;;;266.88;120.80;;;;;;;;;;1036311;28;20022;-74
2023/01/15 01:25:56;;;;;;;287.65;125.07;;;;;;;;;;1036596;28;20034;-74
2023/01/15 01:26:27;;;;;;;271.95;124.53;;;;;;;;;;1036448;28;20363;-74
2023/01/15 01:26:57;;;;;;;291.45;123.38;;;;;;;;;;1036604;28;20482;-73
2023/01/15 01:27:28;;;;;;;279.60;133.85;;;;;;;;;;1036609;28;20036;-74
2023/01/15 01:27:58;;;;;;;280.23;123.57;;;;;;;;;;1034030;28;20033;-74
2023/01/15 01:28:29;;;;;;;278.90;128.63;;;;;;;;;;1032730;28;20119;-74
2023/01/15 01:28:59;;;;;;;288.58;132.40;;;;;;;;;;1033106;28;20023;-74
2023/01/15 01:29:30;;;;;;;281.70;130.32;;;;;;;;;;1034277;28;20402;-74
2023/01/15 01:30:01;;;;;;;276.98;125.50;;;;;;;;;;1036312;28;20516;-73
2023/01/15 01:30:31;;;;;;;276.77;124.97;;;;;;;;;;1036502;28;20516;-73
2023/01/15 01:31:05;;;;;;;268.25;118.85;;;;;;;;;;1033461;28;20122;-73
2023/01/15 01:31:36;;;;;;;275.58;119.78;;;;;;;;;;1032394;28;20566;-74
2023/01/15 01:32:06;;;;;;;243.93;113.72;;;;;;;;;;1032388;28;20026;-74
2023/01/15 01:32:37;;;;;;;261.30;115.32;;;;;;;;;;1032823;28;20026;-74
2023/01/15 01:33:08;;;;;;;242.70;115.72;;;;;;;;;;1036347;28;20053;-74
2023/01/15 01:33:38;;;;;;;254.13;117.70;;;;;;;;;;1036535;28;20037;-73
2023/01/15 01:34:09;;;;;;;254.95;117.68;;;;;;;;;;1034186;28;20091;-73
2023/01/15 01:34:40;;;;;;;236.15;112.97;;;;;;;;;;1032492;28;20034;-74
2023/01/15 01:35:10;;;;;;;241.48;113.13;;;;;;;;;;1032292;28;20038;-74
2023/01/15 01:35:46;;;;;;;260.45;114.57;;;;;;;;;;1034585;28;20471;-74
2023/01/15 01:36:17;;;;;;;241.10;111.50;;;;;;;;;;1034060;28;20052;-73
2023/01/15 01:36:47;;;;;;;230.68;114.85;;;;;;;;;;1032251;28;20515;-73
2023/01/15 01:37:18;;;;;;;246.25;113.57;;;;;;;;;;1031917;28;20027;-74
2023/01/15 01:37:51;;;;;;;257.92;117.85;;;;;;;;;;1032177;28;20027;-74
2023/01/15 01:38:22;;;;;;;262.83;110.65;;;;;;;;;;1033232;28;20430;-74
2023/01/15 01:38:52;;;;;;;218.65;109.65;;;;;;;;;;1036570;28;20084;-73
2023/01/15 01:39:23;;;;;;;237.55;111.97;;;;;;;;;;1033564;28;20038;-73
2023/01/15 01:39:54;;;;;;;257.65;115.57;;;;;;;;;;1032385;28;20501;-73
2023/01/15 01:40:24;;;;;;;246.13;115.18;;;;;;;;;;1034926;28;20530;-73
2023/01/15 01:40:55;;;;;;;233.32;115.88;;;;;;;;;;1036119;28;20032;-73
2023/01/15 01:41:26;;;;;;;242.35;117.88;;;;;;;;;;1031782;28;20036;-74
2023/01/15 01:41:57;;;;;;;232.55;108.65;;;;;;;;;;1032199;28;20026;-74
2023/01/15 01:42:27;;;;;;;259.45;118.00;;;;;;;;;;1032306;28;20117;-74
2023/01/15 01:42:58;;;;;;;269.17;118.10;;;;;;;;;;1036214;28;20117;-74
2023/01/15 01:43:29;;;;;;;252.05;115.60;;;;;;;;;;1035852;28;20036;-74
2023/01/15 01:44:01;;;;;;;247.23;110.25;;;;;;;;;;1036183;28;20096;-74
2023/01/15 01:44:31;;;;;;;229.38;110.93;;;;;;;;;;1031663;28;20029;-74
2023/01/15 01:45:07;;;;;;;254.00;115.97;;;;;;;;;;1028463;28;20039;-74
2023/01/15 01:45:37;;;;;;;242.32;116.00;;;;;;;;;;1032111;28;20483;-74
2023/01/15 01:46:08;;;;;;;228.65;111.65;;;;;;;;;;1032779;28;20069;-74
2023/01/15 01:46:38;;;;;;;272.70;118.43;;;;;;;;;;1036268;28;20029;-74
2023/01/15 01:47:23;;;;;;;261.20;115.00;;;;;;;;;;1036282;28;20084;-74
2023/01/15 01:47:55;;;;;;;260.02;112.43;;;;;;;;;;1036393;28;20501;-74
2023/01/15 01:48:27;;;;;;;247.65;108.95;;;;;;;;;;1036413;28;20034;-74
2023/01/15 01:49:09;;;;;;;242.13;111.88;;;;;;;;;;1036023;28;20029;-73
2023/01/15 01:49:42;;;;;;;249.05;118.78;;;;;;;;;;1032156;28;20483;-74
2023/01/15 01:50:13;;;;;;;260.90;118.95;;;;;;;;;;1032095;28;20121;-74
2023/01/15 01:50:44;;;;;;;256.88;112.80;;;;;;;;;;1034007;28;20105;-74
2023/01/15 01:51:15;;;;;;;271.95;119.97;;;;;;;;;;1036032;28;20256;-74
2023/01/15 01:51:48;;;;;;;268.05;124.60;;;;;;;;;;1036548;28;20068;-73
2023/01/15 01:52:40;;;;;;;261.42;118.60;;;;;;;;;;1036364;28;20116;-74
2023/01/15 01:53:16;;;;;;;250.40;110.03;;;;;;;;;;1036275;28;20156;-74
2023/01/15 01:53:47;;;;;;;249.88;116.72;;;;;;;;;;1036573;28;20478;-74
2023/01/15 01:54:20;;;;;;;251.85;111.85;;;;;;;;;;1035942;28;20033;-74
2023/01/15 01:54:51;;;;;;;271.85;115.95;;;;;;;;;;1036067;28;20030;-74
2023/01/15 01:55:22;;;;;;;244.93;112.07;;;;;;;;;;1035971;28;20018;-74
2023/01/15 01:55:54;;;;;;;261.90;116.70;;;;;;;;;;1036240;28;20442;-74
2023/01/15 01:56:25;;;;;;;249.40;119.57;;;;;;;;;;1036263;28;20021;-74
2023/01/15 01:56:56;;;;;;;249.55;115.50;;;;;;;;;;1036532;28;20486;-74
2023/01/15 01:57:27;;;;;;;268.65;114.85;;;;;;;;;;1036221;28;20040;-73
2023/01/15 01:57:59;;;;;;;249.80;105.65;;;;;;;;;;1036024;28;20120;-73
2023/01/15 01:58:31;;;;;;;235.10;105.80;;;;;;;;;;1036057;28;20087;-73
2023/01/15 01:59:03;;;;;;;243.73;107.97;;;;;;;;;;1035988;28;20028;-73
2023/01/15 01:59:34;;;;;;;257.38;111.40;;;;;;;;;;1035787;28;20466;-73
2023/01/15 02:00:05;;;;;;;241.40;106.25;;;;;;;;;;1036296;28;20026;-73
2023/01/15 02:00:37;;;;;;;230.93;109.00;;;;;;;;;;1036354;28;20052;-73
2023/01/15 02:01:07;;;;;;;225.10;110.50;;;;;;;;;;1036214;28;20036;-73
2023/01/15 02:01:38;;;;;;;217.20;104.00;;;;;;;;;;1035944;28;20029;-74
2023/01/15 02:02:09;;;;;;;237.57;106.32;;;;;;;;;;1035357;28;20065;-74
2023/01/15 02:02:40;;;;;;;225.65;107.32;;;;;;;;;;1032136;28;20048;-73
2023/01/15 02:03:11;;;;;;;242.85;111.35;;;;;;;;;;1033691;28;20026;-73
2023/01/15 02:03:42;;;;;;;240.90;111.80;;;;;;;;;;1036415;28;20068;-73
2023/01/15 02:04:13;;;;;;;273.75;114.15;;;;;;;;;;1032834;28;20025;-73
2023/01/15 02:04:43;;;;;;;242.60;113.40;;;;;;;;;;1034303;28;20030;-74
2023/01/15 02:05:17;;;;;;;243.43;113.82;;;;;;;;;;1033864;28;20021;-74
2023/01/15 02:05:53;;;;;;;240.88;114.20;;;;;;;;;;1032020;28;20054;-74
2023/01/15 02:06:24;;;;;;;271.55;115.53;;;;;;;;;;1031954;28;20026;-74
2023/01/15 02:06:57;;;;;;;245.05;114.45;;;;;;;;;;1032241;28;20030;-74
2023/01/15 02:07:30;;;;;;;260.33;113.82;;;;;;;;;;1031791;28;20026;-74
2023/01/15 02:08:00;;;;;;;229.93;106.07;;;;;;;;;;1032151;28;20065;-74
2023/01/15 02:08:31;;;;;;;266.55;116.05;;;;;;;;;;1031951;28;20109;-74
2023/01/15 02:09:02;;;;;;;273.10;114.53;;;;;;;;;;1032612;28;20073;-74
2023/01/15 02:09:32;;;;;;;249.40;119.15;;;;;;;;;;1035835;28;20069;-74
2023/01/15 02:10:03;;;;;;;267.63;121.63;;;;;;;;;;1036122;28;20449;-73
2023/01/15 02:10:34;;;;;;;266.23;114.40;;;;;;;;;;1036364;28;20363;-73
2023/01/15 02:11:05;;;;;;;261.45;114.35;;;;;;;;;;1035852;28;20029;-74
2023/01/15 02:11:36;;;;;;;256.02;118.00;;;;;;;;;;1036000;28;20072;-74
2023/01/15 02:12:18;;;;;;;236.25;112.50;;;;;;;;;;1035978;28;20104;-74
2023/01/15 02:12:54;;;;;;;258.15;114.25;;;;;;;;;;1032477;28;20034;-74
2023/01/15 02:13:24;;;;;;;257.70;113.47;;;;;;;;;;1031796;28;20165;-73
2023/01/15 02:13:58;;;;;;;254.35;110.65;;;;;;;;;;1031964;28;20026;-73
2023/01/15 02:14:46;;;;;;;244.38;114.43;;;;;;;;;;1031879;28;20073;-73
2023/01/15 02:15:30;;;;;;;253.18;111.00;;;;;;;;;;1027706;28;20027;-74
2023/01/15 02:16:19;;;;;;;257.52;115.13;;;;;;;;;;1032002;28;20033;-74
2023/01/15 02:16:54;;;;;;;248.02;112.50;;;;;;;;;;1031983;28;20022;-74
2023/01/15 02:17:29;;;;;;;255.43;113.97;;;;;;;;;;1031701;28;20371;-74
2023/01/15 02:18:06;;;;;;;261.67;114.85;;;;;;;;;;1031978;28;20069;-74
2023/01/15 02:18:42;;;;;;;234.52;111.82;;;;;;;;;;1032070;28;20034;-74
2023/01/15 02:19:31;;;;;;;231.48;106.45;;;;;;;;;;1031998;28;20030;-74
2023/01/15 02:20:21;;;;;;;243.57;107.70;;;;;;;;;;1031893;28;20109;-74
2023/01/15 02:20:51;;;;;;;242.95;110.97;;;;;;;;;;1032009;28;20046;-74
2023/01/15 02:21:22;;;;;;;257.92;112.15;;;;;;;;;;1031777;28;20022;-74
2023/01/15 02:22:12;;;;;;;238.40;114.75;;;;;;;;;;1032235;28;20024;-74
2023/01/15 02:22:48;;;;;;;262.25;113.13;;;;;;;;;;1032311;28;20356;-73
2023/01/15 02:23:33;;;;;;;238.18;106.30;;;;;;;;;;1032084;28;20465;-74
2023/01/15 02:24:06;;;;;;;237.20;111.53;;;;;;;;;;1032282;28;20391;-74
2023/01/15 02:24:54;;;;;;;229.52;105.07;;;;;;;;;;1032293;28;20034;-74
2023/01/15 02:25:32;;;;;;;232.48;104.90;;;;;;;;;;1032056;28;20026;-73
2023/01/15 02:26:06;;;;;;;237.27;103.63;;;;;;;;;;1032174;28;20027;-73
2023/01/15 02:26:36;;;;;;;226.43;104.13;;;;;;;;;;1031890;28;20030;-74
2023/01/15 02:27:07;;;;;;;261.40;111.30;;;;;;;;;;1031846;28;20022;-74
2023/01/15 02:27:40;;;;;;;246.75;115.22;;;;;;;;;;1031938;28;20027;-74
2023/01/15 02:28:13;;;;;;;223.38;108.25;;;;;;;;;;1031940;28;20502;-73
2023/01/15 02:28:45;;;;;;;232.02;109.38;;;;;;;;;;1032231;28;20037;-73
2023/01/15 02:29:25;;;;;;;207.05;100.05;;;;;;;;;;1031919;28;20023;-73
2023/01/15 02:29:56;;;;;;;168.52;85.20;;;;;;;;;;1032229;28;20105;-73
2023/01/15 02:30:34;;;;;;;218.82;104.25;;;;;;;;;;1032095;28;20088;-73
2023/01/15 02:31:07;;;;;;;237.48;109.18;;;;;;;;;;1032266;28;20030;-74
2023/01/15 02:31:40;;;;;;;225.65;100.07;;;;;;;;;;1032323;28;20536;-74
2023/01/15 02:32:17;;;;;;;226.85;101.78;;;;;;;;;;1032135;28;20014;-74
2023/01/15 02:32:50;;;;;;;216.82;99.13;;;;;;;;;;1032282;28;20382;-73
2023/01/15 02:33:24;;;;;;;220.60;102.82;;;;;;;;;;1032105;28;20030;-73
2023/01/15 02:34:09;;;;;;;214.35;100.35;;;;;;;;;;1032333;28;20027;-73
2023/01/15 02:34:43;;;;;;;203.93;95.97;;;;;;;;;;1032178;28;20119;-73
2023/01/15 02:35:17;;;;;;;193.13;93.10;;;;;;;;;;1031974;28;20026;-73
2023/01/15 02:35:53;;;;;;;217.10;99.47;;;;;;;;;;1031355;28;20081;-74
2023/01/15 02:36:25;;;;;;;214.68;95.30;;;;;;;;;;1031820;28;20026;-74
2023/01/15 02:36:59;;;;;;;210.75;97.35;;;;;;;;;;1031992;28;20026;-74
2023/01/15 02:37:31;;;;;;;202.18;98.07;;;;;;;;;;1031875;28;20030;-74
2023/01/15 02:38:04;;;;;;;190.07;92.93;;;;;;;;;;1031875;28;20034;-73
2023/01/15 02:38:38;;;;;;;225.60;95.93;;;;;;;;;;1031960;28;20117;-73
2023/01/15 02:39:11;;;;;;;192.35;91.68;;;;;;;;;;1031657;28;20037;-74
2023/01/15 02:39:44;;;;;;;188.35;88.88;;;;;;;;;;1031756;28;20022;-74
2023/01/15 02:40:16;;;;;;;175.77;86.93;;;;;;;;;;1031897;28;20510;-74
2023/01/15 02:40:48;;;;;;;216.13;89.60;;;;;;;;;;1031900;28;20069;-73
2023/01/15 02:41:21;;;;;;;176.68;86.03;;;;;;;;;;1031767;28;20033;-73
2023/01/15 02:41:54;;;;;;;184.20;91.47;;;;;;;;;;1031801;28;20030;-74
2023/01/15 02:42:25;;;;;;;209.80;92.05;;;;;;;;;;1031811;28;20482;-73
2023/01/15 02:42:56;;;;;;;196.80;89.35;;;;;;;;;;1031968;28;20022;-74
2023/01/15 02:43:28;;;;;;;172.80;91.70;;;;;;;;;;1031698;28;20553;-74
2023/01/15 02:44:00;;;;;;;184.32;86.82;;;;;;;;;;1032203;28;20426;-74
2023/01/15 02:44:31;;;;;;;170.90;85.22;;;;;;;;;;1031927;28;20028;-74
2023/01/15 02:45:03;;;;;;;188.43;87.10;;;;;;;;;;1032247;28;20084;-73
2023/01/15 02:45:35;;;;;;;191.23;86.70;;;;;;;;;;1032032;28;20023;-73
2023/01/15 02:46:06;;;;;;;167.60;79.55;;;;;;;;;;1031683;28;20033;-73
2023/01/15 02:46:38;;;;;;;184.68;84.68;;;;;;;;;;1035161;28;20040;-74
2023/01/15 02:47:09;;;;;;;183.13;81.20;;;;;;;;;;1031640;28;21030;-74
2023/01/15 02:47:42;;;;;;;191.70;80.22;;;;;;;;;;1032350;28;20041;-74
2023/01/15 02:48:13;;;;;;;169.32;78.00;;;;;;;;;;1035880;28;20080;-74
2023/01/15 02:48:46;;;;;;;170.02;83.25;;;;;;;;;;1032429;28;20030;-73
2023/01/15 02:49:18;;;;;;;190.98;89.30;;;;;;;;;;1035580;28;20525;-73
2023/01/15 02:49:50;;;;;;;198.95;86.05;;;;;;;;;;1031795;28;20030;-73
2023/01/15 02:50:24;;;;;;;180.98;80.25;;;;;;;;;;1032521;28;20026;-73
2023/01/15 02:50:59;;;;;;;191.65;84.82;;;;;;;;;;1035927;28;20029;-73
2023/01/15 02:51:35;;;;;;;192.25;86.85;;;;;;;;;;1035846;28;20133;-73
2023/01/15 02:52:07;;;;;;;180.85;85.97;;;;;;;;;;1036171;28;20478;-73
2023/01/15 02:52:41;;;;;;;197.40;96.68;;;;;;;;;;1036269;28;20025;-73
2023/01/15 02:53:14;;;;;;;203.73;98.47;;;;;;;;;;1036096;28;20454;-74
2023/01/15 02:53:47;;;;;;;214.13;96.03;;;;;;;;;;1036198;28;20490;-74
2023/01/15 02:54:19;;;;;;;226.10;96.60;;;;;;;;;;1036053;28;20026;-74
2023/01/15 02:54:53;;;;;;;210.68;96.80;;;;;;;;;;1033764;28;20045;-74
2023/01/15 02:55:25;;;;;;;206.27;96.43;;;;;;;;;;1031693;28;20030;-74
2023/01/15 02:55:58;;;;;;;194.00;96.15;;;;;;;;;;1031951;28;20026;-74
2023/01/15 02:56:30;;;;;;;214.27;101.05;;;;;;;;;;1031909;28;20176;-74
2023/01/15 02:57:01;;;;;;;218.25;98.60;;;;;;;;;;1032192;28;20049;-74
2023/01/15 02:57:33;;;;;;;214.02;92.57;;;;;;;;;;1031594;28;20057;-73
2023/01/15 02:58:07;;;;;;;218.13;98.97;;;;;;;;;;1031910;28;20034;-74
2023/01/15 02:58:38;;;;;;;201.77;98.50;;;;;;;;;;1034871;28;20034;-74
2023/01/15 02:59:10;;;;;;;223.68;100.70;;;;;;;;;;1035774;28;20045;-74
2023/01/15 02:59:46;;;;;;;212.82;105.00;;;;;;;;;;1036146;28;20037;-74
2023/01/15 03:00:18;;;;;;;219.35;103.13;;;;;;;;;;1035591;28;20030;-73
2023/01/15 03:00:51;;;;;;;240.98;108.97;;;;;;;;;;1032206;28;20030;-73
2023/01/15 03:01:24;;;;;;;236.20;97.38;;;;;;;;;;1031998;28;20033;-74
2023/01/15 03:01:59;;;;;;;217.10;103.95;;;;;;;;;;1031787;28;20018;-74
2023/01/15 03:02:33;;;;;;;238.38;106.07;;;;;;;;;;1031738;28;20081;-74
2023/01/15 03:03:04;;;;;;;226.40;102.40;;;;;;;;;;1031787;28;20034;-74
2023/01/15 03:03:34;;;;;;;227.52;105.60;;;;;;;;;;1031715;28;20082;-74
2023/01/15 03:04:20;;;;;;;256.38;109.95;;;;;;;;;;1031724;28;20121;-74
2023/01/15 03:05:08;;;;;;;245.13;107.72;;;;;;;;;;1029659;28;20057;-74
2023/01/15 03:05:42;;;;;;;218.38;112.13;;;;;;;;;;1031837;28;20034;-74
2023/01/15 03:06:21;;;;;;;254.48;115.30;;;;;;;;;;1031767;28;20077;-74
2023/01/15 03:06:58;;;;;;;252.52;116.82;;;;;;;;;;1032180;28;20030;-74
2023/01/15 03:07:34;;;;;;;251.48;116.88;;;;;;;;;;1031875;28;20117;-74
2023/01/15 03:08:06;;;;;;;280.00;124.18;;;;;;;;;;1032073;28;20033;-74